Jacksonville, IL (62651)

12:06 AM CST on December 15, 2018 (GMT -0600)
Prairie Land | | Change Station
Active Advisory: Dense Fog Advisory

Elev 600 ft 39.72 °N, 90.25 °W | Updated 1 minute ago

Overcast
Overcast
35.8 °F
Feels Like 32 °F
N
5
Wind Variable Wind from ENE
Gusts 8.0 mph

Today
High -- | Low -- °F
--% Chance of Precip.
Yesterday
High -- | Low -- °F
Precip. -- in
Pressure 30.10 in
Visibility 0.8 miles
Clouds Overcast 200 ft
Windchill 32 °F
Dew Point 36 °F
Humidity 99%
Rainfall 0.00 in
Snow Depth Not available.
7:14 AM 4:37 PM
Waxing Crescent, 48% visible
METAR KIJX 150535Z AUTO 01011KT 3/4SM BR OVC002 02/02 A3010 RMK AO2 T00150015
Pressure 30.10 in
Visibility 0.8 miles
Clouds Overcast 200 ft
Windchill 32 °F
Dew Point 36 °F
Humidity 99%
Rainfall 0.00 in
Snow Depth Not available.
7:14 AM 4:37 PM
Waxing Crescent, 48% visible
METAR KIJX 150535Z AUTO 01011KT 3/4SM BR OVC002 02/02 A3010 RMK AO2 T00150015

Get Your Daily Forecast Email!

Thanks for signing up!

Be on the lookout for a verification email in your inbox.

You'll start receiving severe weather alerts in your inbox..

×

10-Day Weather Forecast

Almanac

Astronomy

Dec. 15, 2018 Rise Set
Actual Time
Civil Twilight
Nautical Twilight
Astronomical Twilight
Moon
Length of Visible Light
Length of Day
Tomorrow will be .
, % of the Moon is Illuminated

Today's Extremes

State Highs State Lows

Community

WunderPhotos

Category 6

Welcome to Category 6. This is the collective home for Weather Underground's featured writeups by Dr. Jeff Masters (right), Bob Henson (left), Chris Burt, and other regular contributors.

Nearby

Air Quality

  Air Quality AQ Index Pollutant
Not available.

Snow Depth

Station Depth Elevation

Earthquake Activity

City Distance Mag. Time & Date
Minimum magnitude displayed is 2.5.

Coastal Water Temperatures

Place Temperature

Stations

Nearby Weather Stations

Station Location Temp. Windchill Dew Point Humidity Wind Precip. Elev Updated Type
                   

Watches & Warnings

Dense Fog Advisory
Issued: 8:11 PM CST Dec. 14, 2018 – National Weather Service

... Dense fog advisory now in effect until 9 am CST Saturday...

* visibility... locally below one quarter mile

* impacts... visibility may vary considerably over short
distances producing rapid visibility changes while driving.

Precautionary/preparedness actions...

A dense fog advisory means visibilities will frequently be
reduced to less than one quarter mile. If driving, slow down, use
low-beam headlights, and leave plenty of distance ahead of you.



Smith